Aeroporto :







RITROVATECI SU...

 
LOGIN :

Iscrizione | Disclaimer

   EN    FR    IT 

 









Sommario :    VFR   VFR Marginale   IFR   IFR Intensivo   IFR Molto Intensivo
Visibilità : 
Base nubi : 
>= 8 km
>= 3000ft
5 / 8 km
1000 / 3000 ft
1500m / 5 km
500 / 1000 ft
800 / 1500m
200 / 500 ft
< 800m
< 200 ft
Simboli :   Temporali  Nebbia  Neve Forte  Precipitazioni Forti  Vento > 20 kt






- Altitudine del aeroporto : 276 ft
- Codice IATA : BVB


SBBV - Boa Vista Int.

ULTIMO METAR :
  • 020200Z 05012KT 9999 TS SCT015 BKN040 FEW045CB BKN080 25/22 Q1014

METARs OBSOLETI :
  • 020110Z 25003KT 9999 TS BKN040 FEW045CB SCT080 27/23 Q1013
  • 020100Z 23005KT 9999 BKN040 FEW045TCU SCT080 28/23 Q1013
  • 020000Z 27005KT 9999 BKN040 FEW045TCU BKN080 28/23 Q1012

TAF TAF SBBV
Valido dal 02 a 00 ore il 03 a 00 ore UTC


012100Z 0200/0224 13005KT 9999 SCT030 FEW045TCU TN25/0206Z TX32/0216Z
BECMG 0200/0202 FEW030
BECMG 0204/0206 08005KT
BECMG 0214/0216 BKN030 FEW040TCU
PROB30
TEMPO 0219/0222 TS SCT022 FEW030CB RMK PDU
FIR SBAZ / Sudamerica



MetMap, La meteo Aeronautica in un colpo d'occhio ! - Copyright ORBIFLY Dicembre 2007 - Disclaimer

ORBIFLY MET'MAP TEAM :

Programmazione e sviluppo : Alexandra Zaïnal
Concezione : Baudouin d'Aumeries
Aiuto per la programmazione : Marc-Olivier Méhu
Supporto tecnico e logistico : Manuel Goepfert
Aiuto per la traduzione : Arnaldo La Scala

Contatto : metmap@orbifly.com




FONTI E CREDITI :

   NOAA